sensor_id;sensor_type;location;lat;lon;timestamp;pressure;altitude;pressure_sealevel;temperature;humidity
13058;BME280;6595;49.578;11.012;2022-08-14T00:00:24;981.501;;;25.20;89.1
13058;BME280;6595;49.578;11.012;2022-08-14T00:02:25;981.466;;;25.20;89.1
13058;BME280;6595;49.578;11.012;2022-08-14T00:04:24;981.513;;;25.08;89.1
13058;BME280;6595;49.578;11.012;2022-08-14T00:06:24;981.498;;;25.02;89.1
13058;BME280;6595;49.578;11.012;2022-08-14T00:08:25;981.473;;;25.22;89.1
13058;BME280;6595;49.578;11.012;2022-08-14T00:10:24;981.480;;;25.11;89.1
13058;BME280;6595;49.578;11.012;2022-08-14T00:12:25;981.493;;;24.84;89.1
13058;BME280;6595;49.578;11.012;2022-08-14T00:14:25;981.476;;;24.75;89.1
13058;BME280;6595;49.578;11.012;2022-08-14T00:16:24;981.491;;;24.89;89.1
13058;BME280;6595;49.578;11.012;2022-08-14T00:18:26;981.468;;;24.90;89.1
13058;BME280;6595;49.578;11.012;2022-08-14T00:20:27;981.475;;;24.69;89.1
13058;BME280;6595;49.578;11.012;2022-08-14T00:22:24;981.444;;;24.62;89.1
13058;BME280;6595;49.578;11.012;2022-08-14T00:24:24;981.477;;;24.69;89.1
13058;BME280;6595;49.578;11.012;2022-08-14T00:26:24;981.440;;;24.75;89.1
13058;BME280;6595;49.578;11.012;2022-08-14T00:28:25;981.427;;;24.85;89.1
13058;BME280;6595;49.578;11.012;2022-08-14T00:30:24;981.424;;;24.79;89.1
13058;BME280;6595;49.578;11.012;2022-08-14T00:32:24;981.390;;;24.72;89.1
13058;BME280;6595;49.578;11.012;2022-08-14T00:34:24;981.397;;;24.68;89.1
13058;BME280;6595;49.578;11.012;2022-08-14T00:36:24;981.371;;;24.72;89.1
13058;BME280;6595;49.578;11.012;2022-08-14T00:38:23;981.371;;;24.59;89.1
13058;BME280;6595;49.578;11.012;2022-08-14T00:40:24;981.374;;;24.45;89.0
13058;BME280;6595;49.578;11.012;2022-08-14T00:42:24;981.348;;;24.48;89.0
13058;BME280;6595;49.578;11.012;2022-08-14T00:44:24;981.329;;;24.47;89.0
13058;BME280;6595;49.578;11.012;2022-08-14T00:46:24;981.331;;;24.36;89.0
13058;BME280;6595;49.578;11.012;2022-08-14T00:48:24;981.304;;;24.14;89.0
13058;BME280;6595;49.578;11.012;2022-08-14T00:50:24;981.259;;;24.11;89.0
13058;BME280;6595;49.578;11.012;2022-08-14T00:52:24;981.290;;;24.23;89.0
13058;BME280;6595;49.578;11.012;2022-08-14T00:54:24;981.257;;;24.06;89.0
13058;BME280;6595;49.578;11.012;2022-08-14T00:56:24;981.268;;;24.06;89.0
13058;BME280;6595;49.578;11.012;2022-08-14T00:58:31;981.254;;;23.79;89.0
13058;BME280;6595;49.578;11.012;2022-08-14T01:00:24;981.246;;;23.95;89.0
13058;BME280;6595;49.578;11.012;2022-08-14T01:02:24;981.205;;;24.13;89.0
13058;BME280;6595;49.578;11.012;2022-08-14T01:04:25;981.169;;;24.27;89.0
13058;BME280;6595;49.578;11.012;2022-08-14T01:06:25;981.119;;;24.14;89.0
13058;BME280;6595;49.578;11.012;2022-08-14T01:08:26;981.094;;;24.23;89.0
13058;BME280;6595;49.578;11.012;2022-08-14T01:10:34;981.107;;;24.15;89.0
13058;BME280;6595;49.578;11.012;2022-08-14T01:12:25;981.117;;;23.90;89.0
13058;BME280;6595;49.578;11.012;2022-08-14T01:14:24;981.098;;;23.83;89.0
13058;BME280;6595;49.578;11.012;2022-08-14T01:16:24;981.062;;;24.04;89.0
13058;BME280;6595;49.578;11.012;2022-08-14T01:18:45;981.079;;;24.03;89.0
13058;BME280;6595;49.578;11.012;2022-08-14T01:20:43;981.099;;;23.96;89.0
13058;BME280;6595;49.578;11.012;2022-08-14T01:22:24;981.044;;;23.74;89.0
13058;BME280;6595;49.578;11.012;2022-08-14T01:24:24;981.026;;;23.90;89.0
13058;BME280;6595;49.578;11.012;2022-08-14T01:26:25;981.004;;;23.68;89.0
13058;BME280;6595;49.578;11.012;2022-08-14T01:28:25;981.007;;;23.42;88.9
13058;BME280;6595;49.578;11.012;2022-08-14T01:30:26;981.001;;;23.33;88.9
13058;BME280;6595;49.578;11.012;2022-08-14T01:32:24;980.917;;;23.63;89.0
13058;BME280;6595;49.578;11.012;2022-08-14T01:34:25;980.911;;;23.63;89.0
13058;BME280;6595;49.578;11.012;2022-08-14T01:36:24;980.925;;;23.82;89.0
13058;BME280;6595;49.578;11.012;2022-08-14T01:38:25;980.916;;;23.78;89.0
13058;BME280;6595;49.578;11.012;2022-08-14T01:40:25;980.916;;;23.82;89.0
13058;BME280;6595;49.578;11.012;2022-08-14T01:42:24;980.928;;;23.88;89.0
13058;BME280;6595;49.578;11.012;2022-08-14T01:44:27;980.932;;;23.84;89.0
13058;BME280;6595;49.578;11.012;2022-08-14T01:46:24;980.893;;;23.74;89.0
13058;BME280;6595;49.578;11.012;2022-08-14T01:48:24;980.873;;;23.66;89.0
13058;BME280;6595;49.578;11.012;2022-08-14T01:50:24;980.859;;;23.60;89.0
13058;BME280;6595;49.578;11.012;2022-08-14T01:52:24;980.814;;;23.34;88.9
13058;BME280;6595;49.578;11.012;2022-08-14T01:54:24;980.803;;;23.55;88.9
13058;BME280;6595;49.578;11.012;2022-08-14T01:56:34;980.786;;;23.68;89.0
13058;BME280;6595;49.578;11.012;2022-08-14T01:58:26;980.772;;;23.49;88.9
13058;BME280;6595;49.578;11.012;2022-08-14T02:00:24;980.767;;;23.53;88.9
13058;BME280;6595;49.578;11.012;2022-08-14T02:02:24;980.736;;;23.57;88.9
13058;BME280;6595;49.578;11.012;2022-08-14T02:04:26;980.683;;;23.11;88.9
13058;BME280;6595;49.578;11.012;2022-08-14T02:06:25;980.680;;;22.98;88.9
13058;BME280;6595;49.578;11.012;2022-08-14T02:08:26;980.632;;;22.94;88.9
13058;BME280;6595;49.578;11.012;2022-08-14T02:10:28;980.646;;;22.92;88.9
13058;BME280;6595;49.578;11.012;2022-08-14T02:12:24;980.646;;;22.92;88.9
13058;BME280;6595;49.578;11.012;2022-08-14T02:14:24;980.645;;;22.63;88.8
13058;BME280;6595;49.578;11.012;2022-08-14T02:16:26;980.655;;;22.97;88.9
13058;BME280;6595;49.578;11.012;2022-08-14T02:18:24;980.592;;;23.27;88.9
13058;BME280;6595;49.578;11.012;2022-08-14T02:20:24;980.595;;;23.36;88.9
13058;BME280;6595;49.578;11.012;2022-08-14T02:22:25;980.580;;;23.33;88.9
13058;BME280;6595;49.578;11.012;2022-08-14T02:24:26;980.569;;;23.38;88.9
13058;BME280;6595;49.578;11.012;2022-08-14T02:26:26;980.531;;;23.13;88.9
13058;BME280;6595;49.578;11.012;2022-08-14T02:28:24;980.460;;;23.14;88.9
13058;BME280;6595;49.578;11.012;2022-08-14T02:30:24;980.439;;;23.17;88.9
13058;BME280;6595;49.578;11.012;2022-08-14T02:32:24;980.403;;;23.25;88.9
13058;BME280;6595;49.578;11.012;2022-08-14T02:34:29;980.363;;;23.15;88.9
13058;BME280;6595;49.578;11.012;2022-08-14T02:36:25;980.334;;;22.87;88.9
13058;BME280;6595;49.578;11.012;2022-08-14T02:38:25;980.387;;;22.59;88.8
13058;BME280;6595;49.578;11.012;2022-08-14T02:40:26;980.335;;;22.64;88.8
13058;BME280;6595;49.578;11.012;2022-08-14T02:42:24;980.316;;;22.95;88.9
13058;BME280;6595;49.578;11.012;2022-08-14T02:44:24;980.301;;;22.72;88.9
13058;BME280;6595;49.578;11.012;2022-08-14T02:46:24;980.299;;;22.79;88.9
13058;BME280;6595;49.578;11.012;2022-08-14T02:48:30;980.300;;;22.84;88.9
13058;BME280;6595;49.578;11.012;2022-08-14T02:50:24;980.224;;;22.99;88.9
13058;BME280;6595;49.578;11.012;2022-08-14T02:52:26;980.157;;;23.03;88.9
13058;BME280;6595;49.578;11.012;2022-08-14T02:54:25;980.170;;;23.01;88.9
13058;BME280;6595;49.578;11.012;2022-08-14T02:56:26;980.149;;;23.00;88.9
13058;BME280;6595;49.578;11.012;2022-08-14T02:58:24;980.160;;;22.81;88.9
13058;BME280;6595;49.578;11.012;2022-08-14T03:00:24;980.135;;;22.98;88.9
13058;BME280;6595;49.578;11.012;2022-08-14T03:02:25;980.094;;;23.18;88.9
13058;BME280;6595;49.578;11.012;2022-08-14T03:04:27;980.123;;;23.02;88.9
13058;BME280;6595;49.578;11.012;2022-08-14T03:06:25;980.074;;;22.91;88.9
13058;BME280;6595;49.578;11.012;2022-08-14T03:08:26;980.131;;;22.70;88.9
13058;BME280;6595;49.578;11.012;2022-08-14T03:10:24;980.133;;;22.45;88.8
13058;BME280;6595;49.578;11.012;2022-08-14T03:12:25;980.112;;;22.40;88.8
13058;BME280;6595;49.578;11.012;2022-08-14T03:14:24;980.046;;;22.56;88.8
13058;BME280;6595;49.578;11.012;2022-08-14T03:16:25;980.025;;;22.49;88.8
13058;BME280;6595;49.578;11.012;2022-08-14T03:18:25;980.041;;;22.43;88.8
13058;BME280;6595;49.578;11.012;2022-08-14T03:20:24;980.030;;;22.51;88.8
13058;BME280;6595;49.578;11.012;2022-08-14T03:22:24;980.088;;;22.56;88.8
13058;BME280;6595;49.578;11.012;2022-08-14T03:24:24;980.066;;;22.62;88.8
13058;BME280;6595;49.578;11.012;2022-08-14T03:26:26;980.035;;;22.60;88.8
13058;BME280;6595;49.578;11.012;2022-08-14T03:28:28;980.002;;;22.74;88.9
13058;BME280;6595;49.578;11.012;2022-08-14T03:30:25;979.996;;;22.76;88.9
13058;BME280;6595;49.578;11.012;2022-08-14T03:32:23;979.978;;;22.67;88.9
13058;BME280;6595;49.578;11.012;2022-08-14T03:34:25;979.981;;;22.42;88.8
13058;BME280;6595;49.578;11.012;2022-08-14T03:36:24;979.940;;;22.48;88.8
13058;BME280;6595;49.578;11.012;2022-08-14T03:38:24;980.004;;;22.61;88.9
13058;BME280;6595;49.578;11.012;2022-08-14T03:40:24;979.977;;;22.76;88.9
13058;BME280;6595;49.578;11.012;2022-08-14T03:42:24;979.979;;;22.52;88.8
13058;BME280;6595;49.578;11.012;2022-08-14T03:44:24;979.936;;;22.41;88.8
13058;BME280;6595;49.578;11.012;2022-08-14T03:46:25;979.968;;;22.56;88.8
13058;BME280;6595;49.578;11.012;2022-08-14T03:48:25;979.963;;;22.37;88.8
13058;BME280;6595;49.578;11.012;2022-08-14T03:50:24;979.903;;;22.50;88.8
13058;BME280;6595;49.578;11.012;2022-08-14T03:52:24;979.867;;;22.65;88.8
13058;BME280;6595;49.578;11.012;2022-08-14T03:54:24;979.850;;;22.62;88.8
13058;BME280;6595;49.578;11.012;2022-08-14T03:56:25;979.859;;;22.60;88.8
13058;BME280;6595;49.578;11.012;2022-08-14T03:58:23;979.784;;;22.31;88.8
13058;BME280;6595;49.578;11.012;2022-08-14T04:00:24;979.728;;;22.35;88.8
13058;BME280;6595;49.578;11.012;2022-08-14T04:02:24;979.668;;;22.33;88.8
13058;BME280;6595;49.578;11.012;2022-08-14T04:04:23;979.638;;;22.35;88.8
13058;BME280;6595;49.578;11.012;2022-08-14T04:06:24;979.606;;;22.21;88.8
13058;BME280;6595;49.578;11.012;2022-08-14T04:08:24;979.640;;;22.29;88.8
13058;BME280;6595;49.578;11.012;2022-08-14T04:10:25;979.623;;;22.42;88.8
13058;BME280;6595;49.578;11.012;2022-08-14T04:12:24;979.617;;;22.45;88.8
13058;BME280;6595;49.578;11.012;2022-08-14T04:14:24;979.583;;;22.53;88.8
13058;BME280;6595;49.578;11.012;2022-08-14T04:16:24;979.585;;;22.40;88.8
13058;BME280;6595;49.578;11.012;2022-08-14T04:18:23;979.536;;;22.42;88.8
13058;BME280;6595;49.578;11.012;2022-08-14T04:20:24;979.504;;;22.57;88.8
13058;BME280;6595;49.578;11.012;2022-08-14T04:22:24;979.462;;;22.40;88.8
13058;BME280;6595;49.578;11.012;2022-08-14T04:24:24;979.472;;;22.58;88.8
13058;BME280;6595;49.578;11.012;2022-08-14T04:26:27;979.457;;;22.12;88.8
13058;BME280;6595;49.578;11.012;2022-08-14T04:28:25;979.450;;;22.00;88.8
13058;BME280;6595;49.578;11.012;2022-08-14T04:30:28;979.372;;;22.48;88.8
13058;BME280;6595;49.578;11.012;2022-08-14T04:32:25;979.372;;;22.48;88.8
13058;BME280;6595;49.578;11.012;2022-08-14T04:34:24;979.375;;;22.63;88.8
13058;BME280;6595;49.578;11.012;2022-08-14T04:36:24;979.397;;;22.60;88.8
13058;BME280;6595;49.578;11.012;2022-08-14T04:38:44;979.392;;;22.65;88.8
13058;BME280;6595;49.578;11.012;2022-08-14T04:40:43;979.329;;;22.83;88.9
13058;BME280;6595;49.578;11.012;2022-08-14T04:42:44;979.325;;;22.81;88.9
13058;BME280;6595;49.578;11.012;2022-08-14T04:44:23;979.274;;;22.77;88.9
13058;BME280;6595;49.578;11.012;2022-08-14T04:46:24;979.254;;;22.86;88.9
13058;BME280;6595;49.578;11.012;2022-08-14T04:48:26;979.233;;;22.90;88.9
13058;BME280;6595;49.578;11.012;2022-08-14T04:50:24;979.186;;;23.18;88.9
13058;BME280;6595;49.578;11.012;2022-08-14T04:52:24;979.229;;;23.13;88.9
13058;BME280;6595;49.578;11.012;2022-08-14T04:54:25;979.252;;;22.78;88.9
13058;BME280;6595;49.578;11.012;2022-08-14T04:56:25;979.336;;;22.99;88.9
13058;BME280;6595;49.578;11.012;2022-08-14T04:58:26;979.346;;;23.19;88.9
13058;BME280;6595;49.578;11.012;2022-08-14T05:00:26;979.356;;;22.86;88.9
13058;BME280;6595;49.578;11.012;2022-08-14T05:02:26;979.309;;;22.99;88.9
13058;BME280;6595;49.578;11.012;2022-08-14T05:04:24;979.311;;;23.05;88.9
13058;BME280;6595;49.578;11.012;2022-08-14T05:06:24;979.286;;;23.41;88.9
13058;BME280;6595;49.578;11.012;2022-08-14T05:08:24;979.305;;;23.61;89.0
13058;BME280;6595;49.578;11.012;2022-08-14T05:10:25;979.324;;;23.62;89.0
13058;BME280;6595;49.578;11.012;2022-08-14T05:12:24;979.320;;;23.59;89.0
13058;BME280;6595;49.578;11.012;2022-08-14T05:14:24;979.290;;;23.48;88.9
13058;BME280;6595;49.578;11.012;2022-08-14T05:16:30;979.210;;;23.74;89.0
13058;BME280;6595;49.578;11.012;2022-08-14T05:18:25;979.222;;;23.70;89.0
13058;BME280;6595;49.578;11.012;2022-08-14T05:20:24;979.233;;;24.07;89.0
13058;BME280;6595;49.578;11.012;2022-08-14T05:22:24;979.233;;;24.07;89.0
13058;BME280;6595;49.578;11.012;2022-08-14T05:24:24;979.269;;;24.05;89.0
13058;BME280;6595;49.578;11.012;2022-08-14T05:26:24;979.294;;;24.40;89.0
13058;BME280;6595;49.578;11.012;2022-08-14T05:28:26;979.235;;;24.48;89.0
13058;BME280;6595;49.578;11.012;2022-08-14T05:30:23;979.209;;;24.51;89.1
13058;BME280;6595;49.578;11.012;2022-08-14T05:32:24;979.248;;;24.63;89.1
13058;BME280;6595;49.578;11.012;2022-08-14T05:34:29;979.226;;;24.61;89.1
13058;BME280;6595;49.578;11.012;2022-08-14T05:36:24;979.307;;;24.77;89.1
13058;BME280;6595;49.578;11.012;2022-08-14T05:38:23;979.340;;;24.77;89.1
13058;BME280;6595;49.578;11.012;2022-08-14T05:40:25;979.341;;;24.67;89.1
13058;BME280;6595;49.578;11.012;2022-08-14T05:42:24;979.363;;;24.96;89.1
13058;BME280;6595;49.578;11.012;2022-08-14T05:44:24;979.312;;;25.15;89.1
13058;BME280;6595;49.578;11.012;2022-08-14T05:46:24;979.302;;;25.29;89.1
13058;BME280;6595;49.578;11.012;2022-08-14T05:48:24;979.340;;;25.40;89.1
13058;BME280;6595;49.578;11.012;2022-08-14T05:50:23;979.364;;;25.06;89.1
13058;BME280;6595;49.578;11.012;2022-08-14T05:52:24;979.385;;;25.46;89.1
13058;BME280;6595;49.578;11.012;2022-08-14T05:54:24;979.460;;;25.40;89.1
13058;BME280;6595;49.578;11.012;2022-08-14T05:56:24;979.496;;;25.57;89.2
13058;BME280;6595;49.578;11.012;2022-08-14T05:58:24;979.513;;;25.39;89.1
13058;BME280;6595;49.578;11.012;2022-08-14T06:00:25;979.397;;;24.97;89.1
13058;BME280;6595;49.578;11.012;2022-08-14T06:02:24;979.484;;;25.52;89.2
13058;BME280;6595;49.578;11.012;2022-08-14T06:04:23;979.470;;;26.18;89.2
13058;BME280;6595;49.578;11.012;2022-08-14T06:06:24;979.512;;;26.21;89.2
13058;BME280;6595;49.578;11.012;2022-08-14T06:08:26;979.506;;;26.18;89.2
13058;BME280;6595;49.578;11.012;2022-08-14T06:10:25;979.556;;;26.67;89.3
13058;BME280;6595;49.578;11.012;2022-08-14T06:12:24;979.512;;;26.51;89.3
13058;BME280;6595;49.578;11.012;2022-08-14T06:14:24;979.511;;;26.63;89.3
13058;BME280;6595;49.578;11.012;2022-08-14T06:16:23;979.486;;;26.74;89.3
13058;BME280;6595;49.578;11.012;2022-08-14T06:18:24;979.494;;;27.07;89.3
13058;BME280;6595;49.578;11.012;2022-08-14T06:20:24;979.501;;;27.04;89.3
13058;BME280;6595;49.578;11.012;2022-08-14T06:22:24;979.501;;;27.04;89.3
13058;BME280;6595;49.578;11.012;2022-08-14T06:24:24;979.526;;;27.43;89.4
13058;BME280;6595;49.578;11.012;2022-08-14T06:26:23;979.526;;;27.43;89.4
13058;BME280;6595;49.578;11.012;2022-08-14T06:28:25;979.496;;;27.70;89.4
13058;BME280;6595;49.578;11.012;2022-08-14T06:30:26;979.459;;;27.51;89.4
13058;BME280;6595;49.578;11.012;2022-08-14T06:32:24;979.422;;;27.47;89.4
13058;BME280;6595;49.578;11.012;2022-08-14T06:34:23;979.402;;;27.42;89.4
13058;BME280;6595;49.578;11.012;2022-08-14T06:36:24;979.416;;;27.44;89.4
13058;BME280;6595;49.578;11.012;2022-08-14T06:38:24;979.412;;;27.85;89.4
13058;BME280;6595;49.578;11.012;2022-08-14T06:40:27;979.438;;;27.90;89.4
13058;BME280;6595;49.578;11.012;2022-08-14T06:42:23;979.404;;;27.72;89.4
13058;BME280;6595;49.578;11.012;2022-08-14T06:44:23;979.389;;;27.60;89.4
13058;BME280;6595;49.578;11.012;2022-08-14T06:46:27;979.329;;;28.41;89.5
13058;BME280;6595;49.578;11.012;2022-08-14T06:48:24;979.318;;;28.50;89.5
13058;BME280;6595;49.578;11.012;2022-08-14T06:50:24;979.286;;;28.40;89.5
13058;BME280;6595;49.578;11.012;2022-08-14T06:52:24;979.269;;;28.42;89.5
13058;BME280;6595;49.578;11.012;2022-08-14T06:54:24;979.300;;;28.55;89.5
13058;BME280;6595;49.578;11.012;2022-08-14T06:56:24;979.331;;;28.40;89.5
13058;BME280;6595;49.578;11.012;2022-08-14T06:58:23;979.372;;;28.52;89.5
13058;BME280;6595;49.578;11.012;2022-08-14T07:00:26;979.382;;;28.97;89.5
13058;BME280;6595;49.578;11.012;2022-08-14T07:02:44;979.359;;;28.85;89.5
13058;BME280;6595;49.578;11.012;2022-08-14T07:04:44;979.367;;;29.26;89.6
13058;BME280;6595;49.578;11.012;2022-08-14T07:06:24;979.289;;;28.96;89.5
13058;BME280;6595;49.578;11.012;2022-08-14T07:08:26;979.257;;;29.03;89.5
13058;BME280;6595;49.578;11.012;2022-08-14T07:10:24;979.292;;;29.43;89.6
13058;BME280;6595;49.578;11.012;2022-08-14T07:12:24;979.274;;;29.54;89.6
13058;BME280;6595;49.578;11.012;2022-08-14T07:14:24;979.322;;;29.60;89.6
13058;BME280;6595;49.578;11.012;2022-08-14T07:16:24;979.287;;;29.63;89.6
13058;BME280;6595;49.578;11.012;2022-08-14T07:18:26;979.311;;;29.79;89.6
13058;BME280;6595;49.578;11.012;2022-08-14T07:20:24;979.319;;;29.98;89.6
13058;BME280;6595;49.578;11.012;2022-08-14T07:22:23;979.281;;;29.66;89.6
13058;BME280;6595;49.578;11.012;2022-08-14T07:24:24;979.282;;;30.03;89.6
13058;BME280;6595;49.578;11.012;2022-08-14T07:26:23;979.287;;;29.95;89.6
13058;BME280;6595;49.578;11.012;2022-08-14T07:28:26;979.232;;;30.09;89.6
13058;BME280;6595;49.578;11.012;2022-08-14T07:30:24;979.158;;;29.57;89.6
13058;BME280;6595;49.578;11.012;2022-08-14T07:32:24;979.104;;;29.85;89.6
13058;BME280;6595;49.578;11.012;2022-08-14T07:34:24;979.058;;;29.40;89.6
13058;BME280;6595;49.578;11.012;2022-08-14T07:36:24;979.077;;;29.96;89.6
13058;BME280;6595;49.578;11.012;2022-08-14T07:38:25;979.044;;;30.19;89.6
13058;BME280;6595;49.578;11.012;2022-08-14T07:40:25;979.057;;;30.07;89.6
13058;BME280;6595;49.578;11.012;2022-08-14T07:42:24;979.019;;;30.59;89.7
13058;BME280;6595;49.578;11.012;2022-08-14T07:44:23;979.031;;;30.47;89.7
13058;BME280;6595;49.578;11.012;2022-08-14T07:46:24;979.031;;;30.47;89.7
13058;BME280;6595;49.578;11.012;2022-08-14T07:48:24;978.954;;;30.46;89.7
13058;BME280;6595;49.578;11.012;2022-08-14T07:50:24;978.933;;;30.66;89.7
13058;BME280;6595;49.578;11.012;2022-08-14T07:52:24;978.933;;;30.66;89.7
13058;BME280;6595;49.578;11.012;2022-08-14T07:54:24;978.862;;;30.81;89.7
13058;BME280;6595;49.578;11.012;2022-08-14T07:56:24;978.781;;;31.01;89.7
13058;BME280;6595;49.578;11.012;2022-08-14T07:58:24;978.742;;;30.83;89.7
13058;BME280;6595;49.578;11.012;2022-08-14T08:00:24;978.708;;;30.68;89.7
13058;BME280;6595;49.578;11.012;2022-08-14T08:02:27;978.690;;;31.14;89.7
13058;BME280;6595;49.578;11.012;2022-08-14T08:04:25;978.694;;;31.03;89.7
13058;BME280;6595;49.578;11.012;2022-08-14T08:06:24;978.747;;;30.76;89.7
13058;BME280;6595;49.578;11.012;2022-08-14T08:08:26;978.724;;;30.92;89.7
13058;BME280;6595;49.578;11.012;2022-08-14T08:10:32;978.689;;;31.05;89.7
13058;BME280;6595;49.578;11.012;2022-08-14T08:12:24;978.631;;;31.20;89.7
13058;BME280;6595;49.578;11.012;2022-08-14T08:14:24;978.631;;;31.20;89.7
13058;BME280;6595;49.578;11.012;2022-08-14T08:16:24;978.555;;;31.50;89.8
13058;BME280;6595;49.578;11.012;2022-08-14T08:18:25;978.590;;;31.67;89.8
13058;BME280;6595;49.578;11.012;2022-08-14T08:20:25;978.537;;;31.84;89.8
13058;BME280;6595;49.578;11.012;2022-08-14T08:22:24;978.520;;;31.71;89.8
13058;BME280;6595;49.578;11.012;2022-08-14T08:24:23;978.537;;;31.87;89.8
13058;BME280;6595;49.578;11.012;2022-08-14T08:26:28;978.524;;;32.18;89.9
13058;BME280;6595;49.578;11.012;2022-08-14T08:28:25;978.507;;;32.34;89.9
13058;BME280;6595;49.578;11.012;2022-08-14T08:30:24;978.514;;;32.34;89.9
13058;BME280;6595;49.578;11.012;2022-08-14T08:32:26;978.509;;;32.38;89.9
13058;BME280;6595;49.578;11.012;2022-08-14T08:34:23;978.447;;;32.72;89.9
13058;BME280;6595;49.578;11.012;2022-08-14T08:36:23;978.473;;;32.69;89.9
13058;BME280;6595;49.578;11.012;2022-08-14T08:38:25;978.404;;;32.52;89.9
13058;BME280;6595;49.578;11.012;2022-08-14T08:40:26;978.434;;;32.87;89.9
13058;BME280;6595;49.578;11.012;2022-08-14T08:42:24;978.446;;;32.54;89.9
13058;BME280;6595;49.578;11.012;2022-08-14T08:44:28;978.384;;;32.68;89.9
13058;BME280;6595;49.578;11.012;2022-08-14T08:46:24;978.375;;;32.68;89.9
13058;BME280;6595;49.578;11.012;2022-08-14T08:48:29;978.419;;;32.82;89.9
13058;BME280;6595;49.578;11.012;2022-08-14T08:50:30;978.454;;;32.54;89.9
13058;BME280;6595;49.578;11.012;2022-08-14T08:52:24;978.450;;;32.64;89.9
13058;BME280;6595;49.578;11.012;2022-08-14T08:54:23;978.426;;;32.50;89.9
13058;BME280;6595;49.578;11.012;2022-08-14T08:56:35;978.426;;;32.50;89.9
13058;BME280;6595;49.578;11.012;2022-08-14T08:58:24;978.445;;;32.79;89.9
13058;BME280;6595;49.578;11.012;2022-08-14T09:00:24;978.414;;;32.69;89.9
13058;BME280;6595;49.578;11.012;2022-08-14T09:02:24;978.387;;;32.86;89.9
13058;BME280;6595;49.578;11.012;2022-08-14T09:04:25;978.367;;;32.61;89.9
13058;BME280;6595;49.578;11.012;2022-08-14T09:06:23;978.329;;;32.75;89.9
13058;BME280;6595;49.578;11.012;2022-08-14T09:08:27;978.310;;;32.88;89.9
13058;BME280;6595;49.578;11.012;2022-08-14T09:10:24;978.292;;;33.06;89.9
13058;BME280;6595;49.578;11.012;2022-08-14T09:12:24;978.234;;;32.60;89.9
13058;BME280;6595;49.578;11.012;2022-08-14T09:14:27;978.221;;;32.96;89.9
13058;BME280;6595;49.578;11.012;2022-08-14T09:16:24;978.231;;;33.05;89.9
13058;BME280;6595;49.578;11.012;2022-08-14T09:18:26;978.195;;;32.63;89.9
13058;BME280;6595;49.578;11.012;2022-08-14T09:20:24;978.220;;;32.54;89.9
13058;BME280;6595;49.578;11.012;2022-08-14T09:22:24;978.307;;;33.22;90.0
13058;BME280;6595;49.578;11.012;2022-08-14T09:24:24;978.351;;;33.59;90.0
13058;BME280;6595;49.578;11.012;2022-08-14T09:26:24;978.328;;;32.65;89.9
13058;BME280;6595;49.578;11.012;2022-08-14T09:28:23;978.357;;;33.36;90.0
13058;BME280;6595;49.578;11.012;2022-08-14T09:30:24;978.415;;;33.44;90.0
13058;BME280;6595;49.578;11.012;2022-08-14T09:32:35;978.319;;;32.94;89.9
13058;BME280;6595;49.578;11.012;2022-08-14T09:34:41;978.336;;;33.19;90.0
13058;BME280;6595;49.578;11.012;2022-08-14T09:36:34;978.317;;;33.59;90.0
13058;BME280;6595;49.578;11.012;2022-08-14T09:38:30;978.264;;;33.45;90.0
13058;BME280;6595;49.578;11.012;2022-08-14T09:40:32;978.233;;;33.72;90.0
13058;BME280;6595;49.578;11.012;2022-08-14T09:42:34;978.195;;;33.65;90.0
13058;BME280;6595;49.578;11.012;2022-08-14T09:44:38;978.055;;;34.33;90.1
13058;BME280;6595;49.578;11.012;2022-08-14T09:46:26;978.141;;;33.87;90.0
13058;BME280;6595;49.578;11.012;2022-08-14T09:48:25;978.084;;;34.30;90.1
13058;BME280;6595;49.578;11.012;2022-08-14T09:50:26;978.052;;;34.37;90.1
13058;BME280;6595;49.578;11.012;2022-08-14T09:52:24;978.198;;;34.26;90.1
13058;BME280;6595;49.578;11.012;2022-08-14T09:54:34;978.118;;;34.63;90.1
13058;BME280;6595;49.578;11.012;2022-08-14T09:56:24;978.068;;;34.72;90.1
13058;BME280;6595;49.578;11.012;2022-08-14T09:58:35;978.110;;;34.69;90.1
13058;BME280;6595;49.578;11.012;2022-08-14T10:00:41;978.087;;;34.84;90.1
13058;BME280;6595;49.578;11.012;2022-08-14T10:02:25;978.025;;;34.87;90.1
13058;BME280;6595;49.578;11.012;2022-08-14T10:04:27;978.000;;;35.19;90.2
13058;BME280;6595;49.578;11.012;2022-08-14T10:06:26;978.000;;;35.68;90.2
13058;BME280;6595;49.578;11.012;2022-08-14T10:08:24;977.989;;;35.67;90.2
13058;BME280;6595;49.578;11.012;2022-08-14T10:10:29;977.930;;;35.09;90.2
13058;BME280;6595;49.578;11.012;2022-08-14T10:12:24;977.829;;;34.90;90.1
13058;BME280;6595;49.578;11.012;2022-08-14T10:14:27;977.880;;;35.59;90.2
13058;BME280;6595;49.578;11.012;2022-08-14T10:16:28;977.823;;;35.35;90.2
13058;BME280;6595;49.578;11.012;2022-08-14T10:18:26;977.816;;;35.64;90.2
13058;BME280;6595;49.578;11.012;2022-08-14T10:20:33;977.772;;;35.24;90.2
13058;BME280;6595;49.578;11.012;2022-08-14T10:22:29;977.730;;;35.48;90.2
13058;BME280;6595;49.578;11.012;2022-08-14T10:24:25;977.747;;;35.49;90.2
13058;BME280;6595;49.578;11.012;2022-08-14T10:26:24;977.665;;;35.71;90.2
13058;BME280;6595;49.578;11.012;2022-08-14T10:28:24;977.633;;;35.51;90.2
13058;BME280;6595;49.578;11.012;2022-08-14T10:30:34;977.544;;;35.66;90.2
13058;BME280;6595;49.578;11.012;2022-08-14T10:32:25;977.516;;;35.97;90.2
13058;BME280;6595;49.578;11.012;2022-08-14T10:34:30;977.445;;;35.94;90.2
13058;BME280;6595;49.578;11.012;2022-08-14T10:36:25;977.453;;;36.25;90.3
13058;BME280;6595;49.578;11.012;2022-08-14T10:38:27;977.548;;;36.27;90.3
13058;BME280;6595;49.578;11.012;2022-08-14T10:40:27;977.506;;;36.27;90.3
13058;BME280;6595;49.578;11.012;2022-08-14T10:42:33;977.468;;;35.76;90.2
13058;BME280;6595;49.578;11.012;2022-08-14T10:44:32;977.503;;;35.69;90.2
13058;BME280;6595;49.578;11.012;2022-08-14T10:46:24;977.492;;;36.10;90.2
13058;BME280;6595;49.578;11.012;2022-08-14T10:48:24;977.478;;;36.25;90.3
13058;BME280;6595;49.578;11.012;2022-08-14T10:50:32;977.438;;;35.92;90.2
13058;BME280;6595;49.578;11.012;2022-08-14T10:52:27;977.393;;;35.62;90.2